Time;durP1;ratioP1;P1;durP2;ratioP2;P2;SDS_P1;SDS_P2;PMS_P1;PMS_P2;Temp;Humidity;BMP_temperature;BMP_pressure;BME280_temperature;BME280_humidity;BME280_pressure;Samples;Min_cycle;Max_cycle;Signal;HPM_P1;HPM_P2
2023/02/14 00:04:04;;;;;;;12.50;6.00;;;;;;;4.16;79.71;101560.65;219129;1259;139634;-69
2023/02/14 00:09:14;;;;;;;10.60;6.70;;;;;;;4.13;79.90;101568.04;220106;1264;140046;-68
2023/02/14 00:19:44;;;;;;;9.90;7.20;;;;;;;4.23;79.56;101557.56;218379;1260;139472;-68
2023/02/14 00:24:50;;;;;;;11.20;5.60;;;;;;;4.23;79.57;101556.29;217293;1260;139391;-69
2023/02/14 00:29:57;;;;;;;6.70;5.40;;;;;;;4.21;79.70;101555.77;218221;1260;139227;-67
2023/02/14 00:35:03;;;;;;;10.80;5.70;;;;;;;4.25;79.58;101558.23;218447;1260;139362;-68
2023/02/14 00:40:09;;;;;;;6.00;4.50;;;;;;;4.24;79.53;101563.61;217272;1260;139260;-69
2023/02/14 00:45:12;;;;;;;8.20;4.10;;;;;;;4.21;79.33;101575.55;217568;1260;138290;-69
2023/02/14 00:50:17;;;;;;;8.00;5.70;;;;;;;4.17;79.77;101569.90;217184;1264;138584;-69
2023/02/14 00:55:22;;;;;;;8.00;5.50;;;;;;;4.20;79.52;101568.45;217501;1260;140056;-68
2023/02/14 01:00:26;;;;;;;11.30;5.60;;;;;;;4.19;79.54;101566.53;217145;1260;138820;-68
2023/02/14 01:05:31;;;;;;;13.40;6.90;;;;;;;4.15;79.71;101567.50;217324;1260;138033;-69
2023/02/14 01:10:37;;;;;;;7.90;5.50;;;;;;;4.12;79.78;101563.89;217174;1260;140048;-69
2023/02/14 01:15:45;;;;;;;7.30;5.20;;;;;;;4.14;79.65;101566.30;217605;1260;140922;-69
2023/02/14 01:20:50;;;;;;;8.90;4.50;;;;;;;4.13;79.78;101568.50;217980;1260;141392;-70
2023/02/14 01:25:53;;;;;;;8.60;5.70;;;;;;;4.10;79.62;101564.30;217411;1260;139150;-70
2023/02/14 01:31:09;;;;;;;9.80;5.00;;;;;;;4.10;79.69;101560.38;217064;1260;139914;-70
2023/02/14 01:36:21;;;;;;;10.80;6.40;;;;;;;4.11;79.79;101558.20;217909;1260;138677;-69
2023/02/14 01:41:29;;;;;;;13.00;5.30;;;;;;;4.10;79.97;101554.27;217196;1263;139080;-69
2023/02/14 01:46:35;;;;;;;7.70;5.10;;;;;;;4.06;79.95;101553.57;217449;1264;139492;-69
2023/02/14 01:51:52;;;;;;;11.70;7.00;;;;;;;4.02;79.91;101549.92;217872;1260;139972;-69
2023/02/14 01:57:05;;;;;;;15.20;6.80;;;;;;;3.96;79.90;101539.73;219161;1260;139308;-70
2023/02/14 02:02:10;;;;;;;16.50;6.50;;;;;;;3.94;79.80;101536.83;217079;1260;139832;-68
2023/02/14 02:07:23;;;;;;;9.70;5.90;;;;;;;3.95;80.00;101536.54;220033;1260;138999;-69
2023/02/14 02:12:28;;;;;;;11.00;6.70;;;;;;;3.96;80.08;101537.71;220660;1257;138685;-68
2023/02/14 02:17:52;;;;;;;9.10;4.80;;;;;;;3.98;80.26;101545.52;219396;1260;139314;-68
2023/02/14 02:23:09;;;;;;;7.70;4.40;;;;;;;4.04;80.11;101540.00;218059;1257;139604;-68
2023/02/14 02:28:40;;;;;;;12.00;5.60;;;;;;;4.02;79.96;101538.77;217703;1257;139470;-69
2023/02/14 02:34:11;;;;;;;12.00;5.50;;;;;;;3.97;80.23;101540.48;217586;1257;140018;-69
2023/02/14 02:39:22;;;;;;;13.60;6.20;;;;;;;3.95;80.37;101534.90;217713;1257;139968;-68
2023/02/14 02:44:42;;;;;;;10.20;6.50;;;;;;;3.96;80.43;101538.18;217866;1257;139163;-69
2023/02/14 03:01:11;;;;;;;14.70;6.00;;;;;;;3.96;80.46;101548.06;217841;1260;139461;-68
2023/02/14 03:06:17;;;;;;;7.20;6.10;;;;;;;3.98;80.59;101547.12;217866;1256;140045;-69
2023/02/14 03:11:24;;;;;;;11.10;6.50;;;;;;;3.95;80.51;101548.13;217768;1257;139439;-67
2023/02/14 03:16:46;;;;;;;10.50;6.70;;;;;;;3.90;80.68;101553.02;218015;1256;139347;-68
2023/02/14 03:22:17;;;;;;;7.30;5.80;;;;;;;3.91;80.72;101553.91;217633;1257;139501;-66
2023/02/14 03:27:32;;;;;;;8.60;5.60;;;;;;;3.96;80.53;101559.67;218453;1257;140988;-69
2023/02/14 03:32:54;;;;;;;8.80;5.80;;;;;;;3.94;80.82;101556.88;217775;1260;140935;-67
2023/02/14 03:38:09;;;;;;;11.70;7.50;;;;;;;3.86;80.54;101565.90;217627;1257;138808;-67
2023/02/14 03:43:33;;;;;;;9.40;6.80;;;;;;;3.78;80.65;101567.69;217661;1260;139133;-66
2023/02/14 03:48:39;;;;;;;10.40;7.20;;;;;;;3.68;80.81;101574.23;218767;1260;140665;-67
2023/02/14 03:53:46;;;;;;;12.80;8.30;;;;;;;3.63;80.97;101581.07;217988;1257;139621;-67
2023/02/14 03:58:55;;;;;;;9.80;7.00;;;;;;;3.68;81.08;101580.97;217803;1257;139873;-67
2023/02/14 04:03:59;;;;;;;12.40;6.80;;;;;;;3.70;81.19;101577.60;219574;1256;139768;-68
2023/02/14 04:09:04;;;;;;;14.20;9.80;;;;;;;3.66;80.99;101578.81;219584;1260;140702;-70
2023/02/14 04:14:08;;;;;;;13.40;7.60;;;;;;;3.65;81.18;101593.38;220459;1256;138862;-69
2023/02/14 04:19:24;;;;;;;14.00;8.60;;;;;;;3.66;81.14;101581.36;217842;1260;139260;-70
2023/02/14 04:24:30;;;;;;;15.70;8.10;;;;;;;3.65;81.10;101584.98;218006;1256;139792;-69
2023/02/14 04:29:39;;;;;;;10.80;7.30;;;;;;;3.59;81.40;101580.91;217845;1257;140378;-69
2023/02/14 04:34:45;;;;;;;14.20;8.80;;;;;;;3.54;81.50;101585.14;217674;1257;138376;-69
2023/02/14 04:39:50;;;;;;;12.30;6.70;;;;;;;3.50;81.38;101581.92;217777;1257;140082;-68
2023/02/14 04:44:55;;;;;;;13.20;7.30;;;;;;;3.43;81.51;101588.10;217721;1257;139652;-68
2023/02/14 04:50:00;;;;;;;12.60;7.40;;;;;;;3.38;81.76;101587.45;217646;1256;139565;-68
2023/02/14 04:55:06;;;;;;;15.60;9.20;;;;;;;3.39;81.69;101590.48;218223;1257;139088;-68
2023/02/14 05:00:12;;;;;;;12.00;6.80;;;;;;;3.39;81.92;101591.63;217837;1257;139047;-68
2023/02/14 05:05:17;;;;;;;12.40;7.10;;;;;;;3.38;82.11;101591.46;217663;1260;138718;-67
2023/02/14 05:10:20;;;;;;;9.80;7.60;;;;;;;3.38;82.21;101587.25;217670;1257;140185;-66
2023/02/14 05:15:25;;;;;;;11.20;7.40;;;;;;;3.43;82.25;101582.84;217811;1260;140508;-69
2023/02/14 05:20:31;;;;;;;15.50;7.50;;;;;;;3.43;82.18;101586.69;218659;1260;140259;-68
2023/02/14 05:25:36;;;;;;;8.60;7.00;;;;;;;3.43;82.38;101586.83;217600;1257;138969;-69
2023/02/14 05:30:41;;;;;;;17.40;9.70;;;;;;;3.38;82.29;101587.27;217450;1260;138688;-69
2023/02/14 05:35:46;;;;;;;10.30;7.60;;;;;;;3.37;82.24;101587.40;218380;1258;141054;-69
2023/02/14 05:40:51;;;;;;;16.40;8.30;;;;;;;3.34;82.32;101593.45;218541;1257;139578;-68
2023/02/14 05:45:56;;;;;;;13.70;9.80;;;;;;;3.32;82.47;101596.67;218192;1257;141239;-69
2023/02/14 05:51:08;;;;;;;12.80;9.80;;;;;;;3.31;82.37;101605.49;220488;1257;140202;-69
2023/02/14 05:56:12;;;;;;;13.50;8.80;;;;;;;3.36;82.48;101614.35;217775;1260;139352;-73
2023/02/14 06:01:16;;;;;;;15.80;8.00;;;;;;;3.37;82.53;101615.87;217555;1263;141432;-71
2023/02/14 06:06:19;;;;;;;19.50;8.80;;;;;;;3.32;82.52;101620.70;217446;1258;140033;-66
2023/02/14 06:11:23;;;;;;;9.60;8.70;;;;;;;3.31;82.53;101628.05;217444;1259;139414;-63
2023/02/14 06:16:28;;;;;;;11.50;8.00;;;;;;;3.31;82.67;101630.47;218248;1256;139386;-64
2023/02/14 06:21:32;;;;;;;11.70;7.90;;;;;;;3.29;82.58;101623.67;218223;1257;139989;-68
2023/02/14 06:26:37;;;;;;;13.10;9.80;;;;;;;3.26;82.69;101636.40;219416;1257;139003;-69
2023/02/14 06:31:42;;;;;;;13.20;9.20;;;;;;;3.26;82.71;101634.67;218580;1257;139862;-67
2023/02/14 06:36:47;;;;;;;15.90;11.10;;;;;;;3.26;82.61;101637.77;218459;1260;139466;-70
2023/02/14 06:41:53;;;;;;;22.30;10.80;;;;;;;3.26;82.51;101642.04;220108;1256;224487;-69
2023/02/14 06:46:59;;;;;;;11.10;8.70;;;;;;;3.25;82.94;101643.35;218244;1258;139904;-68
2023/02/14 06:52:04;;;;;;;13.70;9.10;;;;;;;3.27;82.84;101643.20;218574;1256;138876;-69
2023/02/14 06:57:08;;;;;;;10.30;8.30;;;;;;;3.30;82.73;101643.56;218709;1255;139321;-68
2023/02/14 07:02:14;;;;;;;9.50;7.60;;;;;;;3.34;82.72;101655.02;217792;1259;139463;-68
2023/02/14 07:07:19;;;;;;;10.90;8.10;;;;;;;3.30;82.71;101656.91;217551;1260;139034;-68
2023/02/14 07:12:24;;;;;;;10.40;8.80;;;;;;;3.27;82.88;101664.29;217668;1257;142050;-69
2023/02/14 07:17:28;;;;;;;12.60;9.10;;;;;;;3.30;83.06;101668.76;217682;1257;141234;-68
2023/02/14 07:22:32;;;;;;;11.20;9.20;;;;;;;3.34;82.94;101671.55;217700;1257;141024;-69
2023/02/14 07:27:38;;;;;;;13.80;9.20;;;;;;;3.33;82.91;101676.83;217544;1258;140276;-67
2023/02/14 07:32:43;;;;;;;14.20;9.90;;;;;;;3.31;82.67;101677.05;218402;1261;139838;-70
2023/02/14 07:37:52;;;;;;;15.80;10.00;;;;;;;3.31;82.60;101684.60;217740;1259;141175;-70
2023/02/14 07:42:57;;;;;;;10.90;8.90;;;;;;;3.37;82.81;101684.73;217619;1257;140600;-70
2023/02/14 07:48:01;;;;;;;11.00;7.50;;;;;;;3.41;82.77;101685.59;218303;1257;139084;-71
2023/02/14 07:53:04;;;;;;;16.50;9.80;;;;;;;3.43;82.71;101686.14;217628;1257;140155;-72
2023/02/14 07:58:08;;;;;;;14.80;10.00;;;;;;;3.51;82.68;101686.81;217660;1257;140077;-73
2023/02/14 08:03:13;;;;;;;13.70;9.70;;;;;;;3.52;82.57;101679.38;217776;1256;140858;-73
2023/02/14 08:08:17;;;;;;;13.80;9.40;;;;;;;3.53;82.69;101684.49;218405;1260;139513;-71
2023/02/14 08:13:21;;;;;;;14.50;11.30;;;;;;;3.63;82.63;101689.71;220018;1257;139145;-71
2023/02/14 08:18:26;;;;;;;13.40;10.30;;;;;;;3.64;82.44;101687.35;218607;1257;140813;-73
2023/02/14 08:23:32;;;;;;;14.90;11.30;;;;;;;3.63;82.64;101691.98;218440;1257;138775;-71
2023/02/14 08:28:36;;;;;;;13.40;9.70;;;;;;;3.68;82.70;101692.05;217333;1261;138999;-70
2023/02/14 08:33:43;;;;;;;16.90;11.40;;;;;;;3.80;82.33;101700.86;217394;1263;140632;-71
2023/02/14 08:38:48;;;;;;;9.00;8.10;;;;;;;3.87;82.30;101700.84;217472;1257;139482;-67
2023/02/14 08:43:53;;;;;;;10.30;7.80;;;;;;;3.86;82.29;101699.54;217551;1257;697024;-67
2023/02/14 08:48:57;;;;;;;16.80;9.80;;;;;;;3.85;82.27;101704.02;217445;1257;139862;-66
2023/02/14 08:54:02;;;;;;;14.20;11.40;;;;;;;3.94;82.16;101701.73;217287;1260;139726;-67
2023/02/14 08:59:07;;;;;;;11.70;9.00;;;;;;;3.99;82.27;101711.89;217563;1257;140214;-66
2023/02/14 09:04:11;;;;;;;9.70;8.20;;;;;;;3.98;82.16;101712.86;217379;1257;139187;-70
2023/02/14 09:09:19;;;;;;;11.10;8.10;;;;;;;3.94;81.76;101720.05;217635;1257;139910;-70
2023/02/14 09:14:24;;;;;;;12.60;9.50;;;;;;;3.98;81.88;101723.90;217742;1257;140684;-69
2023/02/14 09:19:29;;;;;;;15.10;8.10;;;;;;;3.97;81.88;101733.04;217713;1262;140172;-67
2023/02/14 09:24:38;;;;;;;15.20;10.00;;;;;;;3.93;81.95;101731.80;217452;1257;138986;-67
2023/02/14 09:29:44;;;;;;;9.20;8.30;;;;;;;3.92;81.65;101730.80;217560;1258;140022;-67
2023/02/14 09:34:53;;;;;;;15.40;10.50;;;;;;;3.89;81.75;101732.39;217536;1257;139245;-67
2023/02/14 09:39:58;;;;;;;12.10;9.30;;;;;;;3.94;81.96;101745.60;218664;1257;151607;-68
2023/02/14 09:45:10;;;;;;;13.70;10.50;;;;;;;3.99;81.94;101746.02;217872;1257;139176;-68
2023/02/14 09:50:29;;;;;;;12.30;8.80;;;;;;;4.06;82.15;101744.44;217987;1256;139328;-68
2023/02/14 09:55:46;;;;;;;16.20;10.80;;;;;;;4.11;81.90;101735.94;219914;1257;139001;-68
2023/02/14 10:00:53;;;;;;;10.70;9.70;;;;;;;4.16;81.84;101745.11;220344;1257;141790;-70
2023/02/14 10:06:09;;;;;;;16.90;9.30;;;;;;;4.20;81.93;101746.45;218556;1257;140089;-69
2023/02/14 10:11:19;;;;;;;11.90;9.60;;;;;;;4.25;81.89;101745.28;217658;1260;139191;-70
2023/02/14 10:16:32;;;;;;;16.70;8.70;;;;;;;4.28;81.46;101741.30;219080;1257;140757;-70
2023/02/14 10:21:47;;;;;;;11.70;8.80;;;;;;;4.31;81.48;101738.05;217565;1260;139159;-69
2023/02/14 10:27:00;;;;;;;14.20;10.00;;;;;;;4.39;81.78;101729.84;217527;1257;139971;-69
2023/02/14 10:32:18;;;;;;;13.50;8.90;;;;;;;4.46;81.43;101725.54;217761;1257;139883;-69
2023/02/14 10:38:16;;;;;;;11.30;9.00;;;;;;;4.49;81.48;101722.98;218775;1257;140140;-69
2023/02/14 10:43:47;;;;;;;11.20;7.60;;;;;;;4.53;81.40;101723.48;217923;1257;139921;-70
2023/02/14 10:49:24;;;;;;;11.70;8.60;;;;;;;4.60;81.62;101726.66;217599;1257;141475;-68
2023/02/14 10:54:40;;;;;;;9.30;8.20;;;;;;;4.67;81.17;101727.14;217515;1260;139776;-66
2023/02/14 10:59:59;;;;;;;12.30;9.20;;;;;;;4.74;81.49;101711.54;217452;1258;141733;-68
2023/02/14 11:05:05;;;;;;;8.20;7.10;;;;;;;4.80;81.39;101720.06;217757;1257;140910;-68
2023/02/14 11:10:13;;;;;;;14.40;9.70;;;;;;;4.85;81.37;101709.75;217508;1260;139471;-69
2023/02/14 11:15:26;;;;;;;11.50;9.80;;;;;;;4.91;81.02;101720.95;217302;1260;140027;-69
2023/02/14 11:20:31;;;;;;;10.10;9.00;;;;;;;4.90;80.79;101706.84;217781;1258;141026;-69
2023/02/14 11:25:36;;;;;;;11.40;9.10;;;;;;;4.89;81.08;101716.08;217562;1257;138873;-65
2023/02/14 11:30:44;;;;;;;15.60;9.40;;;;;;;4.81;80.67;101711.25;217901;1257;139866;-71
2023/02/14 11:35:51;;;;;;;12.00;8.80;;;;;;;4.83;80.74;101703.11;218185;1257;140459;-71
2023/02/14 11:40:57;;;;;;;12.70;9.30;;;;;;;4.88;81.04;101704.14;218444;1257;138674;-70
2023/02/14 11:46:14;;;;;;;12.20;9.60;;;;;;;4.94;80.75;101699.02;217150;1257;139461;-69
2023/02/14 11:51:27;;;;;;;21.90;13.00;;;;;;;5.02;80.69;101697.11;218180;1257;139810;-68
2023/02/14 11:56:55;;;;;;;13.20;11.80;;;;;;;5.07;80.54;101690.27;220192;1257;140104;-69
2023/02/14 12:02:22;;;;;;;14.40;10.20;;;;;;;5.05;80.41;101685.23;218670;1257;139414;-71
2023/02/14 12:07:35;;;;;;;14.00;9.80;;;;;;;5.01;80.12;101680.73;218328;1257;139575;-68
2023/02/14 12:12:49;;;;;;;13.80;11.30;;;;;;;4.94;79.96;101688.05;217392;1257;139746;-68
2023/02/14 12:18:21;;;;;;;17.40;12.00;;;;;;;4.88;80.10;101684.60;217676;1257;140299;-68
2023/02/14 12:23:40;;;;;;;9.90;8.30;;;;;;;4.89;80.54;101682.36;217370;1257;139719;-68
2023/02/14 12:28:57;;;;;;;13.90;8.50;;;;;;;4.96;80.22;101676.21;218040;1256;141205;-66
2023/02/14 12:34:03;;;;;;;8.80;6.60;;;;;;;5.04;80.39;101677.88;217802;1256;139659;-68
2023/02/14 12:39:20;;;;;;;20.70;13.00;;;;;;;4.98;80.03;101674.23;217573;1256;139169;-66
2023/02/14 12:45:04;;;;;;;13.10;9.80;;;;;;;4.96;80.19;101676.44;217571;1258;139843;-67
2023/02/14 12:50:49;;;;;;;17.60;13.00;;;;;;;4.94;80.02;101668.64;217890;1257;138921;-66
2023/02/14 12:56:33;;;;;;;17.50;13.50;;;;;;;4.93;79.82;101666.27;218273;1257;140155;-67
2023/02/14 13:02:00;;;;;;;12.90;10.10;;;;;;;4.95;80.37;101667.38;217531;1257;139690;-68
2023/02/14 13:07:26;;;;;;;11.20;9.00;;;;;;;4.95;79.83;101666.68;218078;1257;141525;-69
2023/02/14 13:12:38;;;;;;;13.90;10.60;;;;;;;4.88;79.82;101664.73;217602;1256;138702;-70
2023/02/14 13:17:56;;;;;;;10.00;8.00;;;;;;;4.93;79.54;101656.98;217825;1259;140841;-68
2023/02/14 13:23:04;;;;;;;16.40;12.50;;;;;;;4.93;79.71;101659.50;217443;1257;139453;-69
2023/02/14 13:28:15;;;;;;;26.00;16.30;;;;;;;4.85;79.76;101657.98;218226;1256;138782;-70
2023/02/14 13:33:37;;;;;;;18.50;12.80;;;;;;;4.84;79.63;101654.23;218389;1257;140607;-69
2023/02/14 13:38:53;;;;;;;16.50;14.50;;;;;;;4.83;79.56;101661.34;217577;1257;139804;-69
2023/02/14 13:44:01;;;;;;;11.70;10.30;;;;;;;4.79;79.79;101657.92;218871;1256;141222;-71
2023/02/14 13:49:34;;;;;;;21.30;15.10;;;;;;;4.74;79.83;101659.06;220267;1256;139523;-69
2023/02/14 13:54:48;;;;;;;14.10;11.30;;;;;;;4.77;79.86;101655.04;219081;1257;140841;-70
2023/02/14 14:00:15;;;;;;;18.90;13.70;;;;;;;4.79;79.49;101659.64;218125;1256;139172;-69
2023/02/14 14:05:48;;;;;;;12.60;11.10;;;;;;;4.79;79.93;101663.45;217361;1260;139786;-68
2023/02/14 14:10:59;;;;;;;15.00;11.70;;;;;;;4.80;79.84;101664.77;218835;1256;139774;-69
2023/02/14 14:16:22;;;;;;;16.40;12.70;;;;;;;4.87;79.57;101660.92;218901;1256;139994;-67
2023/02/14 14:21:34;;;;;;;14.60;9.10;;;;;;;4.91;79.78;101657.18;218480;1260;140686;-73
2023/02/14 14:26:52;;;;;;;16.10;13.00;;;;;;;4.84;79.41;101656.36;217662;1256;140432;-71
2023/02/14 14:31:57;;;;;;;16.20;12.10;;;;;;;4.78;79.35;101656.36;217313;1257;140061;-70
2023/02/14 14:37:05;;;;;;;14.40;10.60;;;;;;;4.74;79.53;101656.02;217623;1257;139780;-69
2023/02/14 14:42:15;;;;;;;19.90;13.30;;;;;;;4.66;79.46;101656.62;217917;1257;139157;-69
2023/02/14 14:47:27;;;;;;;15.70;12.70;;;;;;;4.70;79.55;101658.48;217330;1257;140117;-69
2023/02/14 14:52:37;;;;;;;15.00;13.40;;;;;;;4.72;79.63;101650.45;217464;1261;138998;-69
2023/02/14 14:57:51;;;;;;;14.20;10.60;;;;;;;4.69;79.75;101646.63;218213;1257;139012;-71
2023/02/14 15:03:07;;;;;;;17.20;12.90;;;;;;;4.64;79.44;101644.58;217654;1256;140122;-70
2023/02/14 15:08:13;;;;;;;20.10;12.40;;;;;;;4.61;79.58;101641.80;218314;1257;141009;-70
2023/02/14 15:13:53;;;;;;;21.60;14.70;;;;;;;4.59;79.77;101644.54;218670;1258;139360;-68
2023/02/14 15:19:11;;;;;;;21.20;13.40;;;;;;;4.60;80.02;101645.23;217981;1260;140040;-67
2023/02/14 15:24:18;;;;;;;16.70;13.00;;;;;;;4.57;80.18;101646.42;217501;1260;139220;-67
2023/02/14 15:29:31;;;;;;;14.10;10.90;;;;;;;4.54;79.71;101650.11;219971;1257;140483;-65
2023/02/14 15:34:36;;;;;;;18.10;13.20;;;;;;;4.48;79.58;101648.92;220120;1257;139198;-68
2023/02/14 15:39:45;;;;;;;13.90;10.90;;;;;;;4.44;79.60;101653.91;217874;1260;140236;-67
2023/02/14 15:44:50;;;;;;;19.10;14.60;;;;;;;4.39;79.51;101656.23;220406;1256;140543;-69
2023/02/14 15:49:54;;;;;;;15.50;12.50;;;;;;;4.38;79.53;101661.14;220089;1256;141510;-69
2023/02/14 15:54:58;;;;;;;18.30;12.70;;;;;;;4.42;79.59;101663.79;218951;1259;139272;-71
2023/02/14 16:00:15;;;;;;;18.80;13.50;;;;;;;4.41;79.61;101670.02;217797;1256;140395;-70
2023/02/14 16:05:20;;;;;;;12.90;11.20;;;;;;;4.32;79.53;101671.53;217458;1256;139281;-70
2023/02/14 16:10:27;;;;;;;15.70;11.50;;;;;;;4.27;79.67;101670.27;217502;1256;138670;-70
2023/02/14 16:15:34;;;;;;;22.30;12.30;;;;;;;4.29;79.87;101666.21;218469;1257;141340;-72
2023/02/14 16:20:50;;;;;;;15.30;13.70;;;;;;;4.36;80.07;101668.32;217249;1260;140653;-71
2023/02/14 16:25:58;;;;;;;17.80;11.70;;;;;;;4.38;79.98;101663.55;217351;1256;139396;-72
2023/02/14 16:31:08;;;;;;;17.10;10.50;;;;;;;4.35;79.85;101664.98;217563;1260;140252;-70
2023/02/14 16:36:25;;;;;;;21.20;13.00;;;;;;;4.30;79.97;101667.67;217360;1256;139568;-66
2023/02/14 16:41:32;;;;;;;15.90;12.50;;;;;;;4.31;80.05;101665.84;217094;1256;140459;-71
2023/02/14 16:46:36;;;;;;;16.80;14.40;;;;;;;4.30;79.96;101671.95;217575;1260;139684;-71
2023/02/14 16:51:43;;;;;;;16.20;13.60;;;;;;;4.30;80.10;101673.81;217441;1256;138913;-74
2023/02/14 16:56:56;;;;;;;21.40;14.30;;;;;;;4.30;80.25;101677.88;219690;1260;141728;-75
2023/02/14 17:02:01;;;;;;;19.80;14.20;;;;;;;4.27;80.12;101680.86;217393;1257;140260;-73
2023/02/14 17:07:05;;;;;;;17.60;14.30;;;;;;;4.31;80.10;101685.02;218364;1256;140134;-73
2023/02/14 17:12:15;;;;;;;19.40;13.60;;;;;;;4.33;80.12;101685.50;217489;1257;140208;-75
2023/02/14 17:17:19;;;;;;;16.80;14.90;;;;;;;4.33;80.23;101691.23;218382;1256;139105;-74
2023/02/14 17:22:23;;;;;;;19.10;14.80;;;;;;;4.26;79.96;101689.23;219452;1257;140907;-79
2023/02/14 17:27:27;;;;;;;20.90;16.50;;;;;;;4.23;80.03;101685.63;219613;1257;140091;-81
2023/02/14 17:32:34;;;;;;;23.40;17.00;;;;;;;4.27;79.95;101689.14;217346;1257;140357;-70
2023/02/14 17:37:39;;;;;;;19.00;14.60;;;;;;;4.26;80.01;101688.15;217276;1257;140140;-75
2023/02/14 17:42:44;;;;;;;17.30;15.30;;;;;;;4.25;80.23;101686.90;218005;1257;139899;-73
2023/02/14 17:47:48;;;;;;;21.80;16.30;;;;;;;4.22;80.16;101684.89;219290;1259;140117;-76
2023/02/14 17:52:58;;;;;;;19.20;14.90;;;;;;;4.19;79.92;101680.05;217546;1258;141029;-69
2023/02/14 17:58:12;;;;;;;18.60;14.90;;;;;;;4.21;80.00;101683.05;220213;1256;140267;-67
2023/02/14 18:03:24;;;;;;;15.90;14.10;;;;;;;4.18;80.04;101686.84;218586;1257;140180;-76
2023/02/14 18:08:30;;;;;;;17.70;14.00;;;;;;;4.14;79.92;101688.77;218096;1260;139908;-73
2023/02/14 18:13:34;;;;;;;17.30;15.00;;;;;;;4.12;80.09;101685.14;217303;1261;138943;-68
2023/02/14 18:18:39;;;;;;;22.50;15.30;;;;;;;4.12;80.17;101688.53;217785;1259;140920;-68
2023/02/14 18:23:43;;;;;;;16.20;13.70;;;;;;;4.14;80.02;101689.14;217276;1261;140544;-68
2023/02/14 18:28:49;;;;;;;15.80;13.10;;;;;;;4.18;80.14;101691.06;217353;1260;139794;-69
2023/02/14 18:33:55;;;;;;;22.80;16.80;;;;;;;4.18;80.30;101689.82;217507;1257;139478;-68
2023/02/14 18:38:59;;;;;;;28.10;20.60;;;;;;;4.14;80.16;101685.64;218031;1261;138875;-67
2023/02/14 18:44:04;;;;;;;21.20;17.80;;;;;;;4.11;80.34;101686.78;217342;1257;139199;-67
2023/02/14 18:49:08;;;;;;;24.40;17.00;;;;;;;4.11;80.38;101682.09;217375;1260;140132;-67
2023/02/14 18:54:13;;;;;;;18.70;14.10;;;;;;;4.15;80.63;101683.10;217257;1256;140928;-68
2023/02/14 18:59:17;;;;;;;17.60;15.10;;;;;;;4.15;80.47;101679.21;217310;1257;139964;-68
2023/02/14 19:04:20;;;;;;;16.40;13.70;;;;;;;4.12;80.33;101673.53;217574;1256;139215;-67
2023/02/14 19:09:26;;;;;;;15.30;13.20;;;;;;;4.01;80.25;101671.94;217625;1257;139353;-67
2023/02/14 19:14:29;;;;;;;15.10;12.50;;;;;;;3.90;80.15;101663.09;218421;1257;139727;-67
2023/02/14 19:19:33;;;;;;;26.80;14.80;;;;;;;3.85;79.91;101660.91;217512;1259;139724;-67
2023/02/14 19:24:38;;;;;;;14.20;12.10;;;;;;;3.78;79.89;101653.90;218118;1260;139659;-68
2023/02/14 19:29:43;;;;;;;14.30;12.80;;;;;;;3.64;79.76;101654.84;217359;1259;138956;-68
2023/02/14 19:34:47;;;;;;;17.70;11.70;;;;;;;3.40;79.42;101653.72;220187;1262;139149;-69
2023/02/14 19:39:50;;;;;;;14.40;11.00;;;;;;;3.26;79.71;101655.93;217883;1262;140276;-66
2023/02/14 19:44:56;;;;;;;14.70;12.40;;;;;;;3.17;79.57;101654.11;217703;1260;140267;-67
2023/02/14 19:50:00;;;;;;;13.60;12.10;;;;;;;3.06;79.51;101656.49;220110;1257;140497;-69
2023/02/14 19:55:06;;;;;;;14.90;11.60;;;;;;;2.90;79.49;101658.30;219123;1260;139425;-68
2023/02/14 20:00:12;;;;;;;21.10;10.50;;;;;;;2.71;79.42;101653.67;218748;1259;140310;-68
2023/02/14 20:05:18;;;;;;;15.20;11.50;;;;;;;2.60;79.61;101659.95;217492;1261;139886;-67
2023/02/14 20:10:25;;;;;;;14.20;11.70;;;;;;;2.54;79.64;101658.71;218515;1260;140728;-67
2023/02/14 20:15:31;;;;;;;13.30;10.30;;;;;;;2.52;80.19;101655.55;217819;1257;140189;-68
2023/02/14 20:26:02;;;;;;;11.40;10.30;;;;;;;2.30;80.38;101651.58;217843;1257;139139;-68
2023/02/14 20:31:09;;;;;;;19.10;13.40;;;;;;;2.29;80.72;101651.68;217470;1256;138892;-68
2023/02/14 20:36:14;;;;;;;23.90;13.80;;;;;;;2.35;80.84;101647.80;217452;1260;141480;-68
2023/02/14 20:41:18;;;;;;;22.00;13.60;;;;;;;2.41;81.11;101639.56;217036;1257;298014;-68
2023/02/14 20:46:22;;;;;;;13.80;11.90;;;;;;;2.44;81.43;101641.53;217351;1256;138909;-66
2023/02/14 20:51:27;;;;;;;22.70;15.20;;;;;;;2.42;81.33;101643.02;217619;1257;139147;-66
2023/02/14 20:56:32;;;;;;;19.10;12.40;;;;;;;2.36;81.41;101650.16;217279;1259;139916;-67
2023/02/14 21:01:37;;;;;;;61.90;25.90;;;;;;;2.31;81.15;101652.02;217509;1256;139554;-67
2023/02/14 21:06:41;;;;;;;26.00;16.30;;;;;;;2.35;81.59;101658.49;218440;1259;139525;-67
2023/02/14 21:11:49;;;;;;;88.90;32.70;;;;;;;2.39;81.77;101655.85;217335;1256;138809;-68
2023/02/14 21:16:53;;;;;;;65.90;28.70;;;;;;;2.40;82.07;101647.37;217786;1257;141050;-66
2023/02/14 21:21:59;;;;;;;54.50;25.50;;;;;;;2.40;82.09;101638.62;218704;1257;139570;-67
2023/02/14 21:27:04;;;;;;;28.40;16.00;;;;;;;2.36;81.84;101629.83;219561;1259;139430;-68
2023/02/14 21:32:09;;;;;;;31.10;17.70;;;;;;;2.32;81.94;101622.97;218438;1260;139902;-66
2023/02/14 21:37:14;;;;;;;55.00;26.60;;;;;;;2.36;81.84;101620.16;217718;1261;140502;-66
2023/02/14 21:42:20;;;;;;;64.10;29.30;;;;;;;2.39;82.23;101620.11;218918;1260;140280;-67
2023/02/14 21:47:27;;;;;;;74.50;31.60;;;;;;;2.43;82.32;101618.90;218106;1256;140219;-65
2023/02/14 21:52:32;;;;;;;87.30;37.40;;;;;;;2.47;82.29;101622.31;219263;1257;139610;-67
2023/02/14 21:57:38;;;;;;;84.90;34.20;;;;;;;2.51;82.49;101621.98;217659;1260;140534;-67
2023/02/14 22:02:42;;;;;;;83.90;35.50;;;;;;;2.48;82.28;101622.30;218910;1262;139779;-65
2023/02/14 22:07:48;;;;;;;111.70;46.90;;;;;;;2.46;82.45;101620.88;219505;1261;139959;-67
2023/02/14 22:12:53;;;;;;;59.40;29.90;;;;;;;2.55;82.74;101619.15;218016;1261;141367;-67
2023/02/14 22:17:59;;;;;;;38.30;20.50;;;;;;;2.60;82.55;101622.70;218627;1260;140326;-66
2023/02/14 22:23:03;;;;;;;59.60;32.00;;;;;;;2.57;82.53;101620.23;217777;1257;138852;-66
2023/02/14 22:28:10;;;;;;;51.20;25.70;;;;;;;2.54;82.84;101617.12;218514;1256;140063;-65
2023/02/14 22:33:15;;;;;;;42.90;22.50;;;;;;;2.56;82.81;101614.83;217856;1257;139843;-67
2023/02/14 22:38:20;;;;;;;70.90;37.80;;;;;;;2.59;83.03;101617.20;217846;1257;139530;-66
2023/02/14 22:43:28;;;;;;;46.80;26.20;;;;;;;2.61;83.25;101615.06;218498;1257;140019;-66
2023/02/14 22:48:36;;;;;;;46.10;25.40;;;;;;;2.56;83.17;101618.38;218002;1257;140353;-66
2023/02/14 22:53:42;;;;;;;42.60;21.90;;;;;;;2.58;83.48;101613.45;218837;1257;139424;-66
2023/02/14 22:58:51;;;;;;;40.60;23.40;;;;;;;2.61;83.25;101616.14;218203;1257;140725;-67
2023/02/14 23:03:58;;;;;;;35.90;18.80;;;;;;;2.63;83.24;101619.80;218873;1257;139746;-65
2023/02/14 23:09:06;;;;;;;82.90;33.50;;;;;;;2.64;83.63;101614.65;219041;1257;138982;-66
2023/02/14 23:25:04;;;;;;;85.50;40.70;;;;;;;2.70;83.36;101600.95;219681;1257;140583;-69
2023/02/14 23:30:15;;;;;;;88.10;39.80;;;;;;;2.70;83.51;101599.70;220204;1257;140388;-69
2023/02/14 23:35:19;;;;;;;79.90;33.30;;;;;;;2.72;83.45;101597.12;218986;1260;140499;-69
2023/02/14 23:40:26;;;;;;;55.90;29.70;;;;;;;2.77;83.55;101590.14;220393;1257;140509;-69
2023/02/14 23:45:34;;;;;;;51.70;28.10;;;;;;;2.83;83.75;101583.93;219684;1260;140737;-69
2023/02/14 23:50:41;;;;;;;48.60;26.60;;;;;;;2.87;83.58;101583.80;217869;1257;138770;-69
2023/02/14 23:55:47;;;;;;;46.90;25.70;;;;;;;2.89;83.77;101581.27;217820;1260;139397;-69
